Time;durP1;ratioP1;P1;durP2;ratioP2;P2;SDS_P1;SDS_P2;PMS_P1;PMS_P2;Temp;Humidity;BMP_temperature;BMP_pressure;BME280_temperature;BME280_humidity;BME280_pressure;Samples;Min_cycle;Max_cycle;Signal;HPM_P1;HPM_P2
2022/05/08 00:01:25;;;;;;;2.60;1.50;;;;;;;6.34;100.00;101968.31;5060708;28;20051;-79
2022/05/08 00:03:59;;;;;;;4.47;1.52;;;;;;;6.29;100.00;101969.81;5070501;28;20048;-80
2022/05/08 00:06:33;;;;;;;2.78;1.65;;;;;;;6.19;100.00;101966.78;5046375;28;20052;-80
2022/05/08 00:09:06;;;;;;;4.60;2.03;;;;;;;6.08;100.00;101968.31;5064334;28;20047;-80
2022/05/08 00:11:40;;;;;;;3.72;1.83;;;;;;;6.09;100.00;101969.13;5052724;28;20044;-79
2022/05/08 00:14:13;;;;;;;3.95;1.92;;;;;;;6.12;100.00;101971.41;5047174;28;20064;-79
2022/05/08 00:16:46;;;;;;;3.53;1.90;;;;;;;6.07;100.00;101971.22;5070369;28;20496;-79
2022/05/08 00:19:21;;;;;;;4.38;1.95;;;;;;;5.97;100.00;101968.97;5063551;28;20464;-79
2022/05/08 00:21:54;;;;;;;4.97;2.20;;;;;;;5.93;100.00;101960.47;5070714;28;20040;-79
2022/05/08 00:24:27;;;;;;;2.05;1.80;;;;;;;5.91;100.00;101959.88;5073229;28;20052;-80
2022/05/08 00:27:00;;;;;;;1.95;1.73;;;;;;;6.01;100.00;101963.97;5048985;28;20045;-79
2022/05/08 00:29:34;;;;;;;3.55;2.05;;;;;;;5.87;100.00;101955.94;5059853;28;20044;-79
2022/05/08 00:32:08;;;;;;;3.83;2.10;;;;;;;5.87;100.00;101968.59;5066907;28;20040;-79
2022/05/08 00:34:43;;;;;;;4.70;2.25;;;;;;;5.79;100.00;101965.13;5050745;28;20068;-79
2022/05/08 00:37:12;;;;;;;2.50;2.00;;;;;;;5.78;100.00;101966.16;5054843;28;20056;-79
2022/05/08 00:39:45;;;;;;;3.17;2.20;;;;;;;5.83;100.00;101970.94;5054999;28;20052;-80
2022/05/08 00:42:19;;;;;;;3.08;2.17;;;;;;;5.81;100.00;101969.47;5069085;28;20044;-79
2022/05/08 00:44:52;;;;;;;3.05;2.38;;;;;;;5.71;100.00;101968.06;5052427;28;20056;-79
2022/05/08 00:47:20;;;;;;;2.75;2.30;;;;;;;5.78;100.00;101978.84;5051858;28;20058;-79
2022/05/08 00:49:55;;;;;;;3.47;2.47;;;;;;;5.69;100.00;101974.72;5042875;28;20055;-80
2022/05/08 00:52:23;;;;;;;3.17;2.60;;;;;;;5.57;100.00;101980.81;5072815;28;20063;-80
2022/05/08 00:54:51;;;;;;;4.82;2.50;;;;;;;5.54;100.00;101978.53;5051017;28;20464;-81
2022/05/08 00:57:25;;;;;;;3.10;2.70;;;;;;;5.50;100.00;101977.31;5066981;28;20056;-79
2022/05/08 01:00:04;;;;;;;3.38;2.85;;;;;;;5.43;100.00;101965.72;5057894;28;20037;-79
2022/05/08 01:02:38;;;;;;;4.13;2.85;;;;;;;5.45;100.00;101966.31;5069056;28;20036;-79
2022/05/08 01:05:13;;;;;;;5.30;3.25;;;;;;;5.30;100.00;101980.06;5042149;28;20052;-79
2022/05/08 01:07:42;;;;;;;2.80;2.60;;;;;;;5.25;100.00;101956.41;5070741;28;20044;-79
2022/05/08 01:10:17;;;;;;;3.33;3.03;;;;;;;5.27;100.00;101967.00;5073343;28;20464;-80
2022/05/08 01:12:45;;;;;;;4.13;3.25;;;;;;;5.32;100.00;101971.75;5042536;28;20044;-80
2022/05/08 01:15:20;;;;;;;4.93;3.65;;;;;;;5.27;100.00;101972.41;5066803;28;20397;-79
2022/05/08 01:17:53;;;;;;;5.25;3.00;;;;;;;5.23;100.00;101969.31;5066029;28;20043;-79
2022/05/08 01:20:29;;;;;;;3.30;3.00;;;;;;;5.22;100.00;101959.56;5071961;28;20493;-79
2022/05/08 01:23:04;;;;;;;3.83;3.47;;;;;;;5.16;100.00;101970.34;5063746;28;20056;-79
2022/05/08 01:25:46;;;;;;;3.63;3.28;;;;;;;5.01;100.00;101973.28;5047072;28;20382;-80
2022/05/08 01:28:15;;;;;;;5.35;3.92;;;;;;;5.10;100.00;101978.25;5074488;28;20045;-78
2022/05/08 01:30:44;;;;;;;4.68;4.07;;;;;;;5.07;100.00;101973.28;5045013;28;20055;-80
2022/05/08 01:33:18;;;;;;;4.00;3.58;;;;;;;5.00;100.00;101977.88;5061487;28;20059;-79
2022/05/08 01:35:53;;;;;;;4.50;4.07;;;;;;;4.92;100.00;101988.88;5043487;28;20045;-79
2022/05/08 01:38:27;;;;;;;4.55;4.07;;;;;;;4.79;100.00;101992.41;5074075;28;20519;-79
2022/05/08 01:41:04;;;;;;;4.75;4.20;;;;;;;4.76;100.00;101982.03;5060094;28;20432;-79
2022/05/08 01:43:37;;;;;;;5.43;4.47;;;;;;;4.87;100.00;101989.50;5043466;28;20056;-79
2022/05/08 01:46:06;;;;;;;5.40;4.90;;;;;;;4.90;100.00;101985.56;5052905;28;20436;-79
2022/05/08 01:48:38;;;;;;;5.95;5.32;;;;;;;4.80;100.00;101993.25;5045284;28;20049;-80
2022/05/08 01:51:12;;;;;;;5.03;4.63;;;;;;;4.82;100.00;101994.72;5053871;28;20044;-80
2022/05/08 01:53:47;;;;;;;5.47;4.63;;;;;;;4.75;100.00;101985.75;5063530;28;20044;-79
2022/05/08 01:56:20;;;;;;;6.40;5.68;;;;;;;4.66;100.00;101992.44;5043669;28;20064;-79
2022/05/08 01:58:53;;;;;;;5.90;5.38;;;;;;;4.57;100.00;101989.94;5048987;28;20056;-79
2022/05/08 02:01:26;;;;;;;6.05;5.40;;;;;;;4.49;100.00;101986.59;5053239;28;20052;-79
2022/05/08 02:03:59;;;;;;;6.22;5.72;;;;;;;4.48;100.00;101995.75;5073123;28;20469;-80
2022/05/08 02:06:32;;;;;;;6.63;6.07;;;;;;;4.30;100.00;101994.47;5043243;28;20059;-80
2022/05/08 02:09:07;;;;;;;6.55;6.05;;;;;;;4.43;100.00;102001.75;5063069;28;20049;-79
2022/05/08 02:11:35;;;;;;;6.38;5.88;;;;;;;4.43;100.00;102002.59;5076710;28;20044;-79
2022/05/08 02:14:08;;;;;;;7.43;6.82;;;;;;;4.39;100.00;102003.19;5062283;28;20041;-79
2022/05/08 02:16:36;;;;;;;7.97;7.32;;;;;;;4.41;100.00;102001.94;5072933;28;20516;-79
2022/05/08 02:19:09;;;;;;;8.38;7.75;;;;;;;4.40;100.00;102005.66;5044966;28;20063;-80
2022/05/08 02:21:43;;;;;;;8.38;7.60;;;;;;;4.37;100.00;102000.69;5046287;28;20053;-80
2022/05/08 02:24:17;;;;;;;8.32;7.72;;;;;;;4.32;100.00;102002.34;5047198;28;20061;-79
2022/05/08 02:26:50;;;;;;;9.27;8.48;;;;;;;4.34;100.00;102003.00;5042435;28;20052;-79
2022/05/08 02:29:23;;;;;;;9.70;9.00;;;;;;;4.32;100.00;102005.88;5046692;28;20055;-79
2022/05/08 02:31:51;;;;;;;10.27;9.55;;;;;;;4.29;100.00;102006.28;5053006;28;20044;-78
2022/05/08 02:34:25;;;;;;;10.98;10.18;;;;;;;4.28;100.00;102007.34;5040882;28;20492;-79
2022/05/08 02:36:58;;;;;;;10.68;9.88;;;;;;;4.20;100.00;102005.66;5067161;28;20041;-80
2022/05/08 02:39:32;;;;;;;11.27;10.48;;;;;;;4.26;100.00;101999.44;5057449;28;20045;-79
2022/05/08 02:42:06;;;;;;;11.68;10.77;;;;;;;4.23;100.00;102007.13;5072427;28;20040;-79
2022/05/08 02:44:35;;;;;;;13.00;12.00;;;;;;;4.19;100.00;102003.16;5057652;28;20420;-79
2022/05/08 02:47:03;;;;;;;12.82;11.88;;;;;;;4.06;100.00;101998.56;5063367;28;20053;-78
2022/05/08 02:49:36;;;;;;;12.80;11.90;;;;;;;4.07;100.00;102009.16;5058166;28;20515;-78
2022/05/08 02:52:09;;;;;;;12.93;11.93;;;;;;;4.12;100.00;102000.47;5051799;28;20058;-80
2022/05/08 02:54:44;;;;;;;12.25;11.45;;;;;;;4.11;100.00;101998.78;5068329;28;20052;-79
2022/05/08 03:00:09;;;;;;;14.18;13.13;;;;;;;3.98;100.00;101990.66;5073794;28;20048;-79
2022/05/08 03:02:38;;;;;;;14.70;13.70;;;;;;;3.91;100.00;102002.28;5050653;28;20670;-79
2022/05/08 03:05:12;;;;;;;16.27;15.18;;;;;;;3.89;100.00;101996.28;5052899;28;20056;-79
2022/05/08 03:07:46;;;;;;;17.17;15.98;;;;;;;3.92;100.00;102001.25;5040158;28;20087;-79
2022/05/08 03:10:15;;;;;;;16.40;15.40;;;;;;;3.86;100.00;102007.44;5066283;28;20060;-78
2022/05/08 03:12:48;;;;;;;19.33;18.13;;;;;;;3.82;100.00;102006.16;5046805;28;20044;-79
2022/05/08 03:15:23;;;;;;;21.13;19.83;;;;;;;3.89;100.00;101996.28;5047307;28;20056;-79
2022/05/08 03:18:00;;;;;;;22.90;21.50;;;;;;;3.88;100.00;102001.84;5064715;28;20040;-79
2022/05/08 03:20:28;;;;;;;22.40;21.10;;;;;;;3.80;100.00;102004.72;5050722;28;20052;-79
2022/05/08 03:23:01;;;;;;;22.30;20.88;;;;;;;3.79;100.00;102005.75;5069923;28;20040;-79
2022/05/08 03:25:31;;;;;;;23.35;21.95;;;;;;;3.69;100.00;102001.56;5060955;28;20051;-79
2022/05/08 03:28:05;;;;;;;22.17;20.83;;;;;;;3.53;100.00;102005.44;5053774;28;20063;-80
2022/05/08 03:30:33;;;;;;;24.70;23.20;;;;;;;3.54;100.00;102012.47;5056941;28;20044;-79
2022/05/08 03:33:06;;;;;;;27.20;25.60;;;;;;;3.51;100.00;102012.06;5067467;28;20389;-79
2022/05/08 03:35:41;;;;;;;27.80;26.10;;;;;;;3.54;100.00;102012.47;5050613;28;20048;-79
2022/05/08 03:38:14;;;;;;;30.25;28.45;;;;;;;3.57;100.00;102005.88;5044648;28;20060;-79
2022/05/08 03:40:49;;;;;;;31.17;29.42;;;;;;;3.45;100.00;102018.22;5067475;28;20036;-79
2022/05/08 03:43:23;;;;;;;36.55;34.47;;;;;;;3.58;100.00;102024.50;5083624;28;20044;-78
2022/05/08 03:45:57;;;;;;;40.35;38.13;;;;;;;3.57;100.00;102020.16;5047715;28;20053;-79
2022/05/08 03:48:25;;;;;;;45.67;43.20;;;;;;;3.62;100.00;102013.34;5058603;28;20049;-78
2022/05/08 03:50:58;;;;;;;48.47;45.80;;;;;;;3.57;100.00;102022.03;5071037;28;20052;-79
2022/05/08 03:53:32;;;;;;;50.05;47.30;;;;;;;3.47;100.00;102017.00;5063590;28;20043;-80
2022/05/08 03:56:09;;;;;;;48.85;46.05;;;;;;;3.48;100.00;102023.22;5060983;28;20750;-80
2022/05/08 03:58:43;;;;;;;53.83;50.90;;;;;;;3.48;100.00;102010.59;5046328;28;20489;-79
2022/05/08 04:01:16;;;;;;;58.47;55.20;;;;;;;3.52;100.00;102017.25;5054904;28;20044;-79
2022/05/08 04:03:45;;;;;;;66.22;62.50;;;;;;;3.60;100.00;102020.78;5054030;28;20041;-79
2022/05/08 04:06:18;;;;;;;74.15;70.18;;;;;;;3.58;100.00;102015.63;5073251;28;20068;-80
2022/05/08 04:08:46;;;;;;;85.00;80.47;;;;;;;3.60;100.00;102012.72;5051034;28;20556;-78
2022/05/08 04:11:20;;;;;;;97.53;92.30;;;;;;;3.70;100.00;102021.25;5073979;28;20139;-79
2022/05/08 04:13:54;;;;;;;104.72;99.20;;;;;;;3.78;100.00;102017.56;5049898;28;20415;-79
2022/05/08 04:16:27;;;;;;;138.77;131.35;;;;;;;3.79;100.00;102011.16;5071972;28;20057;-79
2022/05/08 04:19:00;;;;;;;168.52;159.45;;;;;;;3.75;100.00;102022.28;5053245;28;20066;-78
2022/05/08 04:21:33;;;;;;;215.15;203.48;;;;;;;3.88;100.00;102026.06;5063834;28;20057;-78
2022/05/08 04:24:18;;;;;;;259.80;245.50;;;;;;;3.85;100.00;102016.56;5044771;28;20075;-79
2022/05/08 04:26:53;;;;;;;310.83;293.25;;;;;;;3.98;100.00;102025.69;5072317;28;20047;-79
2022/05/08 04:29:26;;;;;;;448.55;421.67;;;;;;;4.00;100.00;102029.03;5055312;28;20075;-79
2022/05/08 04:31:54;;;;;;;572.88;536.03;;;;;;;4.05;100.00;102040.03;5050197;28;20045;-79
2022/05/08 04:34:28;;;;;;;662.58;619.20;;;;;;;4.00;100.00;102037.09;5048049;28;20098;-79
2022/05/08 04:37:01;;;;;;;685.55;640.63;;;;;;;4.14;100.00;102032.59;5069538;28;20044;-79
2022/05/08 04:39:34;;;;;;;740.97;691.05;;;;;;;4.21;100.00;102047.75;5051216;28;20045;-77
2022/05/08 04:42:10;;;;;;;780.70;727.65;;;;;;;4.17;100.00;102042.94;5062885;28;20045;-78
2022/05/08 04:44:43;;;;;;;865.38;805.15;;;;;;;4.27;100.00;102035.31;5041909;28;20048;-78
2022/05/08 04:47:16;;;;;;;966.15;896.78;;;;;;;4.33;100.00;102042.56;5059965;28;20564;-79
2022/05/08 04:49:44;;;;;;;1033.90;957.80;;;;;;;4.38;100.00;102048.19;5047939;28;20067;-79
2022/05/08 04:52:12;;;;;;;1097.20;999.90;;;;;;;4.49;100.00;102049.47;5073928;28;20055;-80
2022/05/08 04:54:48;;;;;;;1109.85;999.90;;;;;;;4.58;100.00;102050.94;5065305;28;20486;-78
2022/05/08 04:57:17;;;;;;;1112.95;999.90;;;;;;;4.63;100.00;102039.50;5046411;28;20060;-79
2022/05/08 04:59:47;;;;;;;1026.00;950.00;;;;;;;4.99;100.00;102054.44;5070197;28;20048;-80
2022/05/08 05:02:20;;;;;;;1120.13;999.90;;;;;;;6.29;100.00;102042.81;5069620;28;20055;-79
2022/05/08 05:04:54;;;;;;;1120.05;999.90;;;;;;;7.95;100.00;102032.50;5050964;28;20039;-80
2022/05/08 05:07:27;;;;;;;353.63;333.10;;;;;;;8.75;100.00;102038.66;5064018;28;20049;-80
2022/05/08 05:10:00;;;;;;;46.38;43.80;;;;;;;9.79;100.00;102034.41;5068022;28;20045;-79
2022/05/08 05:12:30;;;;;;;20.65;19.38;;;;;;;10.56;100.00;102033.16;5047669;28;20056;-80
2022/05/08 05:15:03;;;;;;;8.80;8.05;;;;;;;11.05;100.00;102029.84;5045644;28;20489;-80
2022/05/08 05:17:37;;;;;;;4.18;3.58;;;;;;;11.02;100.00;102035.78;5062690;28;20388;-80
2022/05/08 05:20:07;;;;;;;3.38;2.25;;;;;;;11.20;100.00;102032.78;5060795;28;20060;-79
2022/05/08 05:22:40;;;;;;;3.45;2.05;;;;;;;11.47;100.00;102036.69;5050256;28;20040;-79
2022/05/08 05:25:13;;;;;;;2.53;1.48;;;;;;;11.31;100.00;102041.09;5067524;28;20499;-79
2022/05/08 05:27:48;;;;;;;3.25;1.40;;;;;;;11.31;100.00;102031.03;5051397;28;20040;-78
2022/05/08 05:30:21;;;;;;;2.92;1.40;;;;;;;10.28;100.00;102045.69;5051938;28;20052;-79
2022/05/08 05:32:55;;;;;;;3.13;1.40;;;;;;;9.04;100.00;102047.75;5048587;28;20711;-79
2022/05/08 05:35:23;;;;;;;3.22;1.27;;;;;;;8.79;100.00;102048.78;5066620;28;20515;-79
2022/05/08 05:37:56;;;;;;;2.58;1.20;;;;;;;8.57;100.00;102064.00;5068604;28;20048;-79
2022/05/08 05:40:29;;;;;;;3.25;1.40;;;;;;;8.08;100.00;102064.84;5042922;28;20055;-79
2022/05/08 05:43:04;;;;;;;2.83;1.10;;;;;;;8.19;100.00;102068.69;5072192;28;20041;-78
2022/05/08 05:45:37;;;;;;;3.55;1.27;;;;;;;7.53;100.00;102054.06;5070149;28;20037;-79
2022/05/08 05:48:05;;;;;;;4.60;1.65;;;;;;;7.62;100.00;102071.66;5062925;28;20048;-79
2022/05/08 05:50:38;;;;;;;3.40;1.50;;;;;;;7.47;100.00;102072.03;5050737;28;20416;-79
2022/05/08 05:53:06;;;;;;;4.13;1.60;;;;;;;7.40;100.00;102079.41;5070451;28;20053;-79
2022/05/08 05:55:40;;;;;;;5.32;1.85;;;;;;;7.49;100.00;102068.03;5066681;28;20036;-79
2022/05/08 05:58:14;;;;;;;3.08;1.45;;;;;;;7.58;100.00;102081.28;5068951;28;20044;-78
2022/05/08 06:00:47;;;;;;;2.67;1.50;;;;;;;7.28;100.00;102088.25;5051158;28;20053;-78
2022/05/08 06:03:21;;;;;;;4.80;1.60;;;;;;;7.30;100.00;102085.31;5063565;28;20378;-79
2022/05/08 06:05:54;;;;;;;4.07;1.70;;;;;;;7.41;100.00;102097.31;5042722;28;20560;-78
2022/05/08 06:08:27;;;;;;;2.88;1.75;;;;;;;7.56;100.00;102094.25;5065453;28;20051;-78
2022/05/08 06:11:01;;;;;;;3.60;1.92;;;;;;;7.85;100.00;102092.66;5057289;28;20041;-78
2022/05/08 06:13:35;;;;;;;3.20;1.85;;;;;;;7.90;100.00;102100.94;5053686;28;20041;-78
2022/05/08 06:16:08;;;;;;;3.47;2.00;;;;;;;7.81;100.00;102091.47;5069997;28;20044;-79
2022/05/08 06:18:44;;;;;;;6.05;2.53;;;;;;;7.97;100.00;102095.44;5058007;28;20374;-78
2022/05/08 06:21:17;;;;;;;5.43;2.28;;;;;;;7.90;100.00;102095.53;5048416;28;20052;-79
2022/05/08 06:23:45;;;;;;;6.13;2.58;;;;;;;7.75;100.00;102098.63;5059158;28;20044;-79
2022/05/08 06:26:16;;;;;;;4.68;2.33;;;;;;;8.04;100.00;102103.47;5041240;28;20064;-78
2022/05/08 06:28:46;;;;;;;3.25;1.95;;;;;;;7.94;100.00;102099.44;5043494;28;20052;-80
2022/05/08 06:31:16;;;;;;;3.50;2.03;;;;;;;7.79;100.00;102099.00;5044916;28;20045;-78
2022/05/08 06:33:46;;;;;;;3.28;1.98;;;;;;;7.74;100.00;102093.41;5047473;28;20052;-82
2022/05/08 06:36:20;;;;;;;5.22;2.15;;;;;;;7.90;100.00;102102.81;5071050;28;20053;-80
2022/05/08 06:38:53;;;;;;;4.47;1.95;;;;;;;7.75;100.00;102081.53;5041770;28;20045;-80
2022/05/08 06:41:22;;;;;;;2.55;1.90;;;;;;;7.82;100.00;102098.53;5058009;28;20033;-80
2022/05/08 06:43:57;;;;;;;6.20;2.45;;;;;;;8.03;100.00;102099.13;5044272;28;20040;-80
2022/05/08 06:46:25;;;;;;;3.78;2.10;;;;;;;8.07;100.00;102103.84;5068289;28;20048;-80
2022/05/08 06:48:58;;;;;;;4.03;2.00;;;;;;;8.33;100.00;102097.25;5050700;28;20139;-80
2022/05/08 06:51:32;;;;;;;4.22;2.00;;;;;;;8.40;100.00;102097.16;5044528;28;20051;-81
2022/05/08 06:54:05;;;;;;;3.17;1.73;;;;;;;8.36;100.00;102101.41;5047572;28;20060;-80
2022/05/08 06:56:41;;;;;;;4.13;2.15;;;;;;;8.37;100.00;102103.06;5060325;28;20409;-79
2022/05/08 07:02:08;;;;;;;4.32;1.90;;;;;;;8.36;100.00;102104.13;5041520;28;20044;-79
2022/05/08 07:04:42;;;;;;;4.13;2.08;;;;;;;8.33;100.00;102104.59;5043335;28;20048;-81
2022/05/08 07:07:15;;;;;;;4.85;1.90;;;;;;;8.33;100.00;102104.59;5045676;28;20045;-80
2022/05/08 07:09:52;;;;;;;4.63;2.03;;;;;;;8.48;100.00;102105.00;5065053;28;20036;-80
2022/05/08 07:12:20;;;;;;;3.78;1.90;;;;;;;8.35;100.00;102105.16;5047282;28;20404;-80
2022/05/08 07:14:56;;;;;;;3.03;1.67;;;;;;;8.46;100.00;102109.00;5056200;28;20041;-80
2022/05/08 07:17:29;;;;;;;2.83;1.50;;;;;;;8.29;100.00;102116.94;5053283;28;20060;-80
2022/05/08 07:20:04;;;;;;;4.50;1.63;;;;;;;8.34;100.00;102114.34;5055312;28;20055;-80
2022/05/08 07:22:37;;;;;;;1.77;1.27;;;;;;;8.73;100.00;102114.88;5037865;28;20045;-79
2022/05/08 07:25:06;;;;;;;4.75;1.73;;;;;;;8.81;100.00;102111.84;5057126;28;20037;-79
2022/05/08 07:27:36;;;;;;;3.42;1.48;;;;;;;9.01;100.00;102111.50;5056975;28;20484;-81
2022/05/08 07:30:07;;;;;;;4.82;1.55;;;;;;;8.97;100.00;102107.59;5064209;28;20044;-80
2022/05/08 07:32:36;;;;;;;4.28;1.75;;;;;;;9.21;100.00;102113.09;5060190;28;20083;-81
2022/05/08 07:37:55;;;;;;;5.45;1.75;;;;;;;9.43;100.00;102107.88;5046512;28;20064;-80
2022/05/08 07:40:30;;;;;;;5.43;1.65;;;;;;;9.70;100.00;102120.97;5058481;28;20048;-79
2022/05/08 07:42:58;;;;;;;2.55;1.23;;;;;;;9.55;100.00;102117.91;5041229;28;20052;-79
2022/05/08 07:45:28;;;;;;;3.78;1.40;;;;;;;9.79;100.00;102111.38;5060600;28;20500;-79
2022/05/08 07:48:02;;;;;;;4.25;1.35;;;;;;;9.85;100.00;102112.31;5044063;28;20060;-80
2022/05/08 07:50:35;;;;;;;5.80;1.67;;;;;;;9.97;100.00;102117.72;5060436;28;20056;-80
2022/05/08 07:53:08;;;;;;;3.28;1.20;;;;;;;9.51;100.00;102120.28;5063944;28;20041;-79
2022/05/08 07:55:42;;;;;;;5.15;1.70;;;;;;;9.60;100.00;102113.41;5042373;28;20052;-80
2022/05/08 07:58:11;;;;;;;5.05;1.63;;;;;;;9.68;100.00;102123.09;5042413;28;20701;-80
2022/05/08 08:00:46;;;;;;;5.30;1.33;;;;;;;9.89;100.00;102124.38;5049355;28;20056;-80
2022/05/08 08:03:19;;;;;;;6.35;1.65;;;;;;;10.19;100.00;102110.56;5072770;28;20055;-79
2022/05/08 08:05:53;;;;;;;4.18;1.40;;;;;;;10.21;100.00;102119.31;5046665;28;20481;-80
2022/05/08 08:08:27;;;;;;;4.05;1.08;;;;;;;10.41;100.00;102123.50;5061098;28;20052;-80
2022/05/08 08:11:03;;;;;;;4.00;1.27;;;;;;;10.33;100.00;102126.59;5053968;28;20051;-81
2022/05/08 08:13:32;;;;;;;5.10;1.52;;;;;;;10.51;100.00;102106.56;5063180;28;20059;-80
2022/05/08 08:16:10;;;;;;;4.05;1.30;;;;;;;10.36;100.00;102115.28;5054202;28;20048;-79
2022/05/08 08:18:44;;;;;;;6.63;1.42;;;;;;;10.71;100.00;102125.97;5060144;28;20485;-80
2022/05/08 08:21:17;;;;;;;3.35;1.08;;;;;;;10.68;100.00;102112.03;5070089;28;20040;-79
2022/05/08 08:23:46;;;;;;;3.72;1.23;;;;;;;10.75;100.00;102118.16;5061934;28;20049;-80
2022/05/08 08:26:19;;;;;;;4.25;1.30;;;;;;;10.80;100.00;102120.97;5059372;28;20041;-80
2022/05/08 08:28:52;;;;;;;3.33;1.20;;;;;;;10.80;99.83;102120.13;5042339;28;20079;-81
2022/05/08 08:31:27;;;;;;;4.20;1.40;;;;;;;10.69;100.00;102114.50;5066749;28;20048;-80
2022/05/08 08:34:00;;;;;;;3.35;1.02;;;;;;;11.09;100.00;102122.78;5065514;28;20087;-80
2022/05/08 08:36:33;;;;;;;4.40;1.30;;;;;;;10.83;100.00;102133.28;5072914;28;20051;-80
2022/05/08 08:39:06;;;;;;;3.35;1.10;;;;;;;11.18;100.00;102124.03;5059743;28;20472;-80
2022/05/08 08:41:36;;;;;;;4.03;1.23;;;;;;;10.91;100.00;102130.16;5050756;28;20041;-79
2022/05/08 08:49:54;;;;;;;3.55;1.20;;;;;;;10.97;91.09;102144.69;5066666;28;20049;-80
2022/05/08 08:52:27;;;;;;;4.53;1.20;;;;;;;11.31;100.00;102137.31;5063874;28;20493;-80
2022/05/08 08:55:01;;;;;;;3.92;1.20;;;;;;;11.39;100.00;102136.91;5066004;28;20044;-80
2022/05/08 08:57:34;;;;;;;8.57;1.45;;;;;;;11.31;100.00;102134.59;5065547;28;20045;-80
2022/05/08 09:00:02;;;;;;;4.78;1.30;;;;;;;11.49;100.00;102128.06;5048591;28;20405;-80
2022/05/08 09:02:38;;;;;;;6.97;1.38;;;;;;;11.38;96.29;102137.97;5068726;28;20055;-79
2022/05/08 09:05:11;;;;;;;4.78;1.50;;;;;;;11.55;97.98;102129.75;5052452;28;20071;-79
2022/05/08 09:07:43;;;;;;;3.47;1.13;;;;;;;11.65;95.57;102137.25;5073500;28;20048;-79
2022/05/08 09:10:18;;;;;;;3.05;1.20;;;;;;;11.65;99.04;102129.06;5058688;28;20049;-79
2022/05/08 09:13:03;;;;;;;6.60;1.30;;;;;;;11.83;94.34;102130.69;5064647;28;20036;-79
2022/05/08 09:15:34;;;;;;;6.20;1.42;;;;;;;12.00;92.93;102138.88;5053266;28;20044;-79
2022/05/08 09:18:11;;;;;;;4.45;1.10;;;;;;;11.52;88.60;102132.19;5043201;28;20055;-81
2022/05/08 09:20:41;;;;;;;3.58;1.13;;;;;;;11.84;88.11;102129.63;5063876;28;20037;-80
2022/05/08 09:23:12;;;;;;;3.42;0.80;;;;;;;11.97;86.55;102136.63;5043160;28;20053;-80
2022/05/08 09:25:54;;;;;;;3.35;0.95;;;;;;;11.78;82.74;102136.09;5063906;28;20041;-79
2022/05/08 09:28:29;;;;;;;3.53;1.13;;;;;;;12.18;90.73;102135.00;5050222;28;20080;-79
2022/05/08 09:31:04;;;;;;;5.05;1.30;;;;;;;11.74;89.27;102132.22;5046281;28;20060;-80
2022/05/08 09:33:40;;;;;;;5.47;1.60;;;;;;;12.18;91.92;102136.88;5045991;28;20047;-80
2022/05/08 09:36:18;;;;;;;6.00;1.48;;;;;;;12.39;83.05;102133.31;5028730;28;20059;-79
2022/05/08 09:38:53;;;;;;;4.32;1.25;;;;;;;12.61;81.64;102132.44;5047716;28;20033;-80
2022/05/08 09:41:28;;;;;;;6.28;1.27;;;;;;;12.12;78.59;102122.34;5033443;28;20061;-78
2022/05/08 09:44:09;;;;;;;4.18;0.95;;;;;;;12.45;81.94;102126.00;5028840;28;21219;-79
2022/05/08 09:46:44;;;;;;;3.20;1.13;;;;;;;12.52;87.93;102125.78;5047919;28;21340;-80
2022/05/08 09:49:21;;;;;;;4.07;1.25;;;;;;;12.79;85.02;102130.41;5043456;28;20037;-79
2022/05/08 09:51:59;;;;;;;7.72;1.58;;;;;;;12.90;81.42;102123.97;5046365;28;20048;-79
2022/05/08 09:54:32;;;;;;;6.25;1.30;;;;;;;12.73;73.79;102132.28;5053790;28;20396;-80
2022/05/08 09:57:06;;;;;;;4.82;1.20;;;;;;;12.78;75.49;102135.06;5030156;28;20056;-79
2022/05/08 09:59:39;;;;;;;4.00;1.02;;;;;;;12.96;67.69;102127.56;5030043;28;20465;-78
2022/05/08 10:02:15;;;;;;;5.25;1.25;;;;;;;12.73;77.12;102135.84;5031785;28;20048;-79
2022/05/08 10:04:45;;;;;;;5.65;1.35;;;;;;;13.03;72.22;102125.44;5030014;28;20052;-79
2022/05/08 10:07:19;;;;;;;4.55;1.20;;;;;;;13.04;59.61;102121.63;5052027;28;21501;-79
2022/05/08 10:15:36;;;;;;;4.72;1.30;;;;;;;13.41;67.70;102129.03;5050132;28;20045;-78
2022/05/08 10:18:23;;;;;;;4.05;1.13;;;;;;;13.13;60.84;102113.75;5035042;28;20139;-79
2022/05/08 10:21:03;;;;;;;5.78;1.10;;;;;;;13.07;64.13;102123.81;5029651;28;20056;-79
2022/05/08 10:23:38;;;;;;;6.63;1.58;;;;;;;13.22;63.39;102117.66;5050227;28;20044;-80
2022/05/08 10:26:16;;;;;;;6.30;1.40;;;;;;;13.47;62.24;102119.75;5031099;28;20055;-78
2022/05/08 10:29:14;;;;;;;3.53;1.10;;;;;;;13.75;67.79;102125.94;5024086;28;20052;-77
2022/05/08 10:31:44;;;;;;;4.85;1.25;;;;;;;13.67;60.53;102123.69;5026513;28;20421;-78
2022/05/08 10:34:31;;;;;;;6.30;1.40;;;;;;;13.60;60.08;102121.19;5042573;28;20052;-77
2022/05/08 10:37:23;;;;;;;;;;;;;;;13.75;57.32;102124.03;5043989;28;20063;-78
2022/05/08 10:39:53;;;;;;;;;;;;;;;14.09;64.14;102120.06;5040692;28;21690;-78
2022/05/08 10:42:42;;;;;;;4.18;1.30;;;;;;;14.04;63.64;102118.13;5028457;28;19927;-79
2022/05/08 10:45:40;;;;;;;5.15;1.35;;;;;;;13.98;59.95;102121.94;5033452;28;20055;-79
2022/05/08 10:48:10;;;;;;;4.82;1.27;;;;;;;13.81;65.15;102119.41;5029824;28;20083;-80
2022/05/08 10:50:46;;;;;;;4.97;1.27;;;;;;;13.57;57.57;102106.13;5028459;28;20513;-80
2022/05/08 10:53:25;;;;;;;3.28;1.10;;;;;;;13.50;61.21;102119.22;5048493;28;20119;-79
2022/05/08 10:56:09;;;;;;;4.82;1.20;;;;;;;14.08;56.59;102118.41;5026764;28;20056;-80
2022/05/08 10:58:53;;;;;;;4.30;1.20;;;;;;;14.22;60.82;102105.03;5050096;28;20039;-78
2022/05/08 11:01:31;;;;;;;5.40;1.58;;;;;;;14.46;57.46;102108.94;5032620;28;20060;-78
2022/05/08 11:04:10;;;;;;;3.95;1.00;;;;;;;13.80;53.97;102106.00;5027144;28;20049;-78
2022/05/08 11:06:43;;;;;;;3.25;1.00;;;;;;;13.86;56.04;102113.13;5042566;28;20049;-81
2022/05/08 11:09:17;;;;;;;2.65;1.00;;;;;;;13.75;52.98;102102.16;5023475;28;20055;-80
2022/05/08 11:11:46;;;;;;;3.72;1.10;;;;;;;14.41;58.26;102108.91;5028540;28;20056;-80
2022/05/08 11:14:24;;;;;;;3.13;1.00;;;;;;;14.31;51.96;102105.34;5043901;28;20094;-79
2022/05/08 11:16:57;;;;;;;;;;;;;;;14.56;51.66;102108.13;5042992;28;20060;-79
2022/05/08 11:19:25;;;;;;;2.13;0.80;;;;;;;14.66;49.73;102110.09;5043004;28;19952;-79
2022/05/08 11:22:06;;;;;;;1.98;0.93;;;;;;;14.28;49.75;102109.47;5049913;28;20063;-79
2022/05/08 11:24:39;;;;;;;3.10;1.02;;;;;;;14.34;50.01;102110.28;5051535;28;20049;-79
2022/05/08 11:27:15;;;;;;;5.13;1.23;;;;;;;14.63;54.48;102116.94;5030351;28;20048;-79
2022/05/08 11:29:48;;;;;;;1.95;0.85;;;;;;;14.35;50.34;102106.44;5045715;28;20515;-79
2022/05/08 11:38:12;;;;;;;5.25;1.13;;;;;;;14.33;50.56;102103.16;5006019;28;20044;-78
2022/05/08 11:40:45;;;;;;;2.65;0.93;;;;;;;14.62;53.41;102108.97;5045522;28;20055;-78
2022/05/08 11:43:40;;;;;;;5.00;1.15;;;;;;;14.57;49.88;102100.72;5045384;28;20594;-79
2022/05/08 11:46:13;;;;;;;3.10;1.00;;;;;;;14.78;49.73;102107.09;5051097;28;20703;-79
2022/05/08 11:48:42;;;;;;;2.90;1.00;;;;;;;14.69;48.24;102105.97;5027726;28;20048;-79
2022/05/08 11:51:18;;;;;;;3.35;1.00;;;;;;;15.01;48.24;102105.72;5030869;28;20059;-79
2022/05/08 11:53:53;;;;;;;4.35;1.25;;;;;;;14.96;47.69;102102.97;5048860;28;20067;-78
2022/05/08 11:56:29;;;;;;;3.13;1.08;;;;;;;14.95;48.24;102101.34;5049434;28;20056;-79
2022/05/08 11:59:05;;;;;;;3.17;1.15;;;;;;;14.89;46.91;102095.03;5047290;28;20409;-80
2022/05/08 12:01:38;;;;;;;2.47;1.00;;;;;;;14.76;47.52;102101.91;5026053;28;20055;-79
2022/05/08 12:04:28;;;;;;;5.30;1.15;;;;;;;14.95;48.09;102088.44;5045990;28;20048;-79
2022/05/08 12:07:03;;;;;;;4.40;1.25;;;;;;;15.52;50.58;102095.75;5032255;28;20060;-79
2022/05/08 12:09:39;;;;;;;1.67;0.82;;;;;;;15.06;46.18;102096.66;5051212;28;20041;-75
2022/05/08 12:12:26;;;;;;;3.88;1.00;;;;;;;15.29;48.76;102101.56;5029550;28;20055;-79
2022/05/08 12:14:59;;;;;;;4.20;1.00;;;;;;;15.45;48.68;102098.78;5031368;28;20056;-78